createdAt,value
2022-11-28T00:02:26.292Z,65.23
2022-11-28T00:05:30.509Z,64.94
2022-11-28T00:08:34.549Z,64.90
2022-11-28T00:11:38.209Z,66.08
2022-11-28T00:14:42.304Z,65.11
2022-11-28T00:17:46.669Z,64.96
2022-11-28T00:20:50.683Z,64.82
2022-11-28T00:23:54.497Z,64.42
2022-11-28T00:26:58.340Z,64.07
2022-11-28T00:30:02.410Z,64.78
2022-11-28T00:33:06.700Z,65.00
2022-11-28T00:36:11.016Z,65.58
2022-11-28T00:39:15.088Z,65.85
2022-11-28T00:42:19.120Z,66.15
2022-11-28T00:45:23.370Z,65.66
2022-11-28T00:48:27.482Z,65.80
2022-11-28T00:51:32.413Z,65.48
2022-11-28T00:54:36.463Z,66.42
2022-11-28T00:57:40.546Z,68.13
2022-11-28T01:00:45.045Z,66.72
2022-11-28T01:03:49.195Z,66.67
2022-11-28T01:06:53.439Z,66.08
2022-11-28T01:09:57.401Z,66.61
2022-11-28T01:13:01.489Z,66.34
2022-11-28T01:16:05.777Z,66.03
2022-11-28T01:19:09.985Z,66.10
2022-11-28T01:22:13.917Z,67.05
2022-11-28T01:25:17.922Z,66.84
2022-11-28T01:28:21.943Z,67.21
2022-11-28T01:31:26.288Z,66.87
2022-11-28T01:34:30.353Z,67.33
2022-11-28T01:37:34.447Z,66.99
2022-11-28T01:40:38.449Z,66.75
2022-11-28T01:43:42.867Z,66.73
2022-11-28T01:46:47.006Z,66.99
2022-11-28T01:49:50.994Z,67.38
2022-11-28T01:52:54.900Z,66.40
2022-11-28T01:55:58.952Z,66.71
2022-11-28T01:59:03.238Z,66.19
2022-11-28T02:02:07.557Z,65.72
2022-11-28T02:05:11.506Z,66.54
2022-11-28T02:08:15.414Z,66.03
2022-11-28T02:11:19.704Z,66.28
2022-11-28T02:14:23.874Z,65.73
2022-11-28T02:17:28.048Z,65.20
2022-11-28T02:20:31.993Z,65.35
2022-11-28T02:23:36.097Z,65.00
2022-11-28T02:26:39.848Z,64.81
2022-11-28T02:29:43.940Z,64.50
2022-11-28T02:32:47.936Z,64.70
2022-11-28T02:35:52.003Z,65.14
2022-11-28T02:38:56.296Z,65.62
2022-11-28T02:42:00.471Z,64.73
2022-11-28T02:45:04.633Z,64.29
2022-11-28T02:48:08.534Z,64.93
2022-11-28T02:51:13.513Z,63.97
2022-11-28T02:54:17.687Z,63.64
2022-11-28T02:57:21.796Z,63.82
2022-11-28T03:00:25.479Z,64.13
2022-11-28T03:03:29.444Z,64.86
2022-11-28T03:06:33.592Z,63.65
2022-11-28T03:09:37.974Z,64.67
2022-11-28T03:12:42.152Z,64.92
2022-11-28T03:15:46.332Z,65.15
2022-11-28T03:18:52.191Z,64.43
2022-11-28T03:21:56.093Z,63.69
2022-11-28T03:25:00.364Z,63.47
2022-11-28T03:28:04.464Z,62.92
2022-11-28T03:31:09.905Z,62.86
2022-11-28T03:34:13.599Z,63.29
2022-11-28T03:37:17.766Z,63.32
2022-11-28T03:40:21.954Z,63.32
2022-11-28T03:43:26.193Z,63.67
2022-11-28T03:46:30.547Z,63.44
2022-11-28T03:49:34.462Z,63.87
2022-11-28T03:52:38.394Z,63.26
2022-11-28T03:55:42.643Z,63.66
2022-11-28T03:58:46.747Z,62.72
2022-11-28T04:01:50.803Z,63.25
2022-11-28T04:04:54.786Z,61.86
2022-11-28T04:07:58.979Z,62.10
2022-11-28T04:11:02.816Z,62.34
2022-11-28T04:14:07.061Z,62.43
2022-11-28T04:17:10.798Z,62.45
2022-11-28T04:20:14.915Z,62.95
2022-11-28T04:23:19.068Z,63.35
2022-11-28T04:26:23.106Z,63.11
2022-11-28T04:29:27.141Z,62.90
2022-11-28T04:32:31.190Z,62.24
2022-11-28T04:35:34.799Z,62.54
2022-11-28T04:38:39.020Z,62.18
2022-11-28T04:41:43.136Z,62.88
2022-11-28T04:44:47.096Z,63.66
2022-11-28T04:47:51.073Z,62.05
2022-11-28T04:50:55.194Z,62.04
2022-11-28T04:53:59.579Z,63.77
2022-11-28T04:57:03.252Z,63.38
2022-11-28T05:00:07.351Z,62.30
2022-11-28T05:03:11.655Z,63.04
2022-11-28T05:06:15.810Z,63.50
2022-11-28T05:09:19.639Z,62.18
2022-11-28T05:12:23.687Z,62.58
2022-11-28T05:15:27.424Z,62.41
2022-11-28T05:18:31.356Z,61.69
2022-11-28T05:21:35.733Z,62.95
2022-11-28T05:24:39.853Z,63.21
2022-11-28T05:27:44.032Z,62.72
2022-11-28T05:30:48.248Z,63.07
2022-11-28T05:33:52.560Z,62.59
2022-11-28T05:36:56.724Z,62.78
2022-11-28T05:40:00.734Z,62.61
2022-11-28T05:43:04.837Z,61.10
2022-11-28T05:46:08.893Z,61.32
2022-11-28T05:49:12.808Z,61.03
2022-11-28T05:52:16.824Z,61.00
2022-11-28T05:55:20.807Z,62.77
2022-11-28T05:58:25.013Z,62.17
2022-11-28T06:01:29.266Z,60.93
2022-11-28T06:04:33.616Z,61.49
2022-11-28T06:07:37.862Z,61.97
2022-11-28T06:10:41.824Z,60.96
2022-11-28T06:13:46.192Z,61.01
2022-11-28T06:16:50.075Z,61.36
2022-11-28T06:19:54.215Z,61.17
2022-11-28T06:22:58.191Z,61.59
2022-11-28T06:26:02.478Z,61.00
2022-11-28T06:29:08.848Z,60.28
2022-11-28T06:32:15.531Z,60.15
2022-11-28T06:35:22.741Z,61.16
2022-11-28T06:38:26.897Z,60.69
2022-11-28T06:41:30.975Z,61.07
2022-11-28T06:44:34.898Z,61.03
2022-11-28T06:47:38.818Z,60.31
2022-11-28T06:50:43.747Z,60.46
2022-11-28T06:53:47.895Z,61.31
2022-11-28T06:56:52.071Z,61.26
2022-11-28T06:59:56.112Z,60.57
2022-11-28T07:03:00.258Z,61.02
2022-11-28T07:06:04.104Z,61.84
2022-11-28T07:09:07.934Z,60.78
2022-11-28T07:12:11.999Z,61.52
2022-11-28T07:15:16.140Z,59.94
2022-11-28T07:18:20.454Z,59.06
2022-11-28T07:21:24.759Z,59.58
2022-11-28T07:24:28.848Z,59.12
2022-11-28T07:27:33.914Z,59.83
2022-11-28T07:30:41.963Z,59.61
2022-11-28T07:33:45.848Z,58.24
2022-11-28T07:36:49.872Z,58.98
2022-11-28T07:39:53.976Z,59.18
2022-11-28T07:42:58.172Z,58.59
2022-11-28T07:46:02.258Z,59.94
2022-11-28T07:49:06.143Z,59.79
2022-11-28T07:52:09.819Z,58.68
2022-11-28T07:55:14.026Z,58.41
2022-11-28T07:58:19.042Z,60.52
2022-11-28T08:01:22.833Z,62.79
2022-11-28T08:04:27.042Z,59.18
2022-11-28T08:07:31.232Z,60.04
2022-11-28T08:10:35.142Z,59.27
2022-11-28T08:13:39.884Z,57.81
2022-11-28T08:16:43.900Z,57.67
2022-11-28T08:19:47.969Z,57.19
2022-11-28T08:22:52.278Z,56.90
2022-11-28T08:25:56.269Z,56.82
2022-11-28T08:29:00.228Z,57.63
2022-11-28T08:32:04.367Z,57.61
2022-11-28T08:35:08.307Z,57.91
2022-11-28T08:38:12.539Z,56.93
2022-11-28T08:41:16.389Z,57.10
2022-11-28T08:44:20.411Z,58.63
2022-11-28T08:47:24.316Z,61.34
2022-11-28T08:50:28.533Z,59.09
2022-11-28T08:53:32.531Z,59.58
2022-11-28T08:56:36.446Z,58.04
2022-11-28T08:59:40.762Z,58.80
2022-11-28T09:02:45.106Z,59.23
2022-11-28T09:05:49.309Z,57.01
2022-11-28T09:08:53.469Z,56.90
2022-11-28T09:11:57.034Z,56.14
2022-11-28T09:15:01.095Z,57.28
2022-11-28T09:18:05.384Z,59.14
2022-11-28T09:21:09.654Z,55.93
2022-11-28T09:24:13.740Z,56.64
2022-11-28T09:27:17.753Z,58.33
2022-11-28T09:30:21.845Z,58.04
2022-11-28T09:33:26.112Z,59.80
2022-11-28T09:36:30.163Z,56.66
2022-11-28T09:39:50.173Z,59.10
2022-11-28T09:42:54.516Z,56.80
2022-11-28T09:45:58.571Z,57.10
2022-11-28T09:49:02.670Z,57.86
2022-11-28T09:52:06.861Z,58.62
2022-11-28T09:55:10.712Z,58.89
2022-11-28T09:58:14.899Z,57.52
2022-11-28T10:01:18.975Z,56.61
2022-11-28T10:04:22.938Z,56.81
2022-11-28T10:07:30.111Z,56.55
2022-11-28T10:10:34.145Z,55.98
2022-11-28T10:14:00.247Z,57.98
2022-11-28T10:17:02.148Z,56.20
2022-11-28T10:20:06.238Z,56.83
2022-11-28T10:23:10.457Z,60.20
2022-11-28T10:26:14.449Z,57.15
2022-11-28T10:29:18.275Z,56.31
2022-11-28T10:32:22.255Z,56.50
2022-11-28T10:35:28.534Z,56.55
2022-11-28T10:38:32.828Z,57.49
2022-11-28T10:41:36.719Z,57.53
2022-11-28T10:44:40.583Z,59.70
2022-11-28T10:47:44.629Z,60.10
2022-11-28T10:50:48.827Z,58.41
2022-11-28T10:53:52.984Z,57.83
2022-11-28T10:56:56.979Z,57.54
2022-11-28T11:00:00.925Z,60.52
2022-11-28T11:03:04.721Z,59.18
2022-11-28T11:06:08.726Z,58.98
2022-11-28T11:09:12.787Z,58.05
2022-11-28T11:12:16.706Z,60.14
2022-11-28T11:15:20.659Z,57.28
2022-11-28T11:18:24.626Z,56.04
2022-11-28T11:21:28.610Z,57.52
2022-11-28T11:24:32.676Z,55.75
2022-11-28T11:27:36.538Z,53.75
2022-11-28T11:30:40.641Z,54.02
2022-11-28T11:33:44.764Z,54.87
2022-11-28T11:36:48.974Z,54.35
2022-11-28T11:39:52.984Z,53.79
2022-11-28T11:42:57.129Z,54.62
2022-11-28T11:46:01.507Z,53.51
2022-11-28T11:49:05.506Z,53.61
2022-11-28T11:52:09.526Z,52.68
2022-11-28T11:55:13.553Z,52.79
2022-11-28T11:58:17.585Z,52.19
2022-11-28T12:01:21.937Z,52.52
2022-11-28T12:04:44.364Z,54.61
2022-11-28T12:07:49.591Z,53.11
2022-11-28T12:10:53.574Z,53.36
2022-11-28T12:13:57.579Z,54.97
2022-11-28T12:17:07.542Z,52.47
2022-11-28T12:20:23.471Z,51.23
2022-11-28T12:23:27.383Z,51.91
2022-11-28T12:26:31.357Z,51.30
2022-11-28T12:29:35.188Z,51.12
2022-11-28T12:32:39.269Z,52.48
2022-11-28T12:35:43.254Z,49.56
2022-11-28T12:38:48.504Z,50.82
2022-11-28T12:41:52.219Z,52.89
2022-11-28T12:44:56.319Z,51.36
2022-11-28T12:48:00.404Z,50.74
2022-11-28T12:51:04.739Z,50.97
2022-11-28T12:54:08.926Z,54.61
2022-11-28T12:57:12.630Z,54.76
2022-11-28T13:00:16.576Z,53.14
2022-11-28T13:03:20.833Z,52.26
2022-11-28T13:06:25.016Z,53.50
2022-11-28T13:09:28.774Z,55.97
2022-11-28T13:12:32.753Z,54.95
2022-11-28T13:15:36.876Z,54.31
2022-11-28T13:18:41.061Z,52.58
2022-11-28T13:21:45.087Z,52.08
2022-11-28T13:24:49.459Z,52.26
2022-11-28T13:27:53.557Z,53.37
2022-11-28T13:30:57.727Z,53.63
2022-11-28T13:34:01.580Z,52.26
2022-11-28T13:40:29.242Z,53.95
2022-11-28T13:43:33.218Z,55.53
2022-11-28T13:46:37.047Z,60.13
2022-11-28T13:49:41.049Z,57.49
2022-11-28T13:52:45.384Z,58.01
2022-11-28T13:55:50.199Z,57.88
2022-11-28T13:58:54.231Z,59.48
2022-11-28T14:01:58.298Z,59.38
2022-11-28T14:05:02.253Z,57.32
2022-11-28T14:08:06.363Z,59.05
2022-11-28T14:11:10.248Z,55.98
2022-11-28T14:14:14.155Z,57.18
2022-11-28T14:17:18.344Z,59.19
2022-11-28T14:20:22.462Z,58.71
2022-11-28T14:23:26.440Z,57.60
2022-11-28T14:26:30.409Z,57.78
2022-11-28T14:29:34.447Z,59.20
2022-11-28T14:32:39.473Z,59.51
2022-11-28T14:35:43.636Z,58.86
2022-11-28T14:38:47.854Z,58.54
2022-11-28T14:41:51.826Z,61.04
2022-11-28T14:44:55.802Z,60.96
2022-11-28T14:47:59.885Z,61.74
2022-11-28T14:51:04.178Z,60.82
2022-11-28T14:54:08.194Z,63.05
2022-11-28T14:57:12.199Z,61.44
2022-11-28T15:00:17.478Z,62.38
2022-11-28T15:03:21.692Z,63.12
2022-11-28T15:06:26.010Z,62.09
2022-11-28T15:09:29.933Z,63.63
2022-11-28T15:12:33.810Z,64.31
2022-11-28T15:15:37.804Z,63.07
2022-11-28T15:18:42.102Z,64.73
2022-11-28T15:21:46.330Z,63.75
2022-11-28T15:24:51.084Z,64.91
2022-11-28T15:27:55.130Z,63.48
2022-11-28T15:30:59.036Z,64.60
2022-11-28T15:34:03.000Z,65.88
2022-11-28T15:37:07.101Z,65.64
2022-11-28T15:40:11.082Z,66.79
2022-11-28T15:43:14.884Z,66.70
2022-11-28T15:46:19.174Z,67.54
2022-11-28T15:49:23.345Z,67.14
2022-11-28T15:52:26.960Z,67.18
2022-11-28T15:55:30.916Z,69.85
2022-11-28T15:58:34.977Z,69.95
2022-11-28T16:01:39.101Z,70.82
2022-11-28T16:04:43.236Z,70.99
2022-11-28T16:07:47.492Z,68.45
2022-11-28T16:10:51.771Z,70.23
2022-11-28T16:13:55.597Z,69.61
2022-11-28T16:16:59.485Z,69.16
2022-11-28T16:20:03.617Z,70.76
2022-11-28T16:23:09.741Z,70.88
2022-11-28T16:26:13.767Z,71.05
2022-11-28T16:29:17.810Z,68.77
2022-11-28T16:32:21.855Z,70.45
2022-11-28T16:35:25.795Z,70.05
2022-11-28T16:38:29.636Z,70.22
2022-11-28T16:41:33.650Z,68.08
2022-11-28T16:44:37.785Z,68.09
2022-11-28T16:47:41.868Z,66.85
2022-11-28T16:50:45.760Z,67.50
2022-11-28T16:53:52.835Z,67.17
2022-11-28T16:56:56.932Z,66.89
2022-11-28T17:00:01.102Z,65.47
2022-11-28T17:03:09.035Z,64.80
2022-11-28T17:06:15.586Z,66.23
2022-11-28T17:09:19.787Z,63.51
2022-11-28T17:12:23.817Z,63.70
2022-11-28T17:15:27.714Z,62.63
2022-11-28T17:18:31.836Z,62.10
2022-11-28T17:21:36.038Z,63.47
2022-11-28T17:24:40.160Z,63.18
2022-11-28T17:27:44.235Z,64.83
2022-11-28T17:30:48.299Z,65.01
2022-11-28T17:33:52.347Z,63.87
2022-11-28T17:36:56.541Z,65.31
2022-11-28T17:40:00.685Z,63.66
2022-11-28T17:43:04.819Z,63.79
2022-11-28T17:46:09.112Z,65.96
2022-11-28T17:49:13.277Z,65.29
2022-11-28T17:52:17.336Z,65.55
2022-11-28T17:55:21.492Z,64.91
2022-11-28T17:58:25.482Z,64.92
2022-11-28T18:01:29.816Z,65.20
2022-11-28T18:04:34.804Z,66.07
2022-11-28T18:07:39.059Z,64.00
2022-11-28T18:10:43.539Z,64.77
2022-11-28T18:13:47.729Z,65.13
2022-11-28T18:16:51.632Z,64.21
2022-11-28T18:19:57.613Z,63.84
2022-11-28T18:23:02.129Z,64.38
2022-11-28T18:26:06.092Z,65.46
2022-11-28T18:29:10.038Z,63.98
2022-11-28T18:32:13.961Z,65.59
2022-11-28T18:35:17.643Z,64.28
2022-11-28T18:38:21.684Z,62.34
2022-11-28T18:41:25.780Z,62.12
2022-11-28T18:44:29.622Z,63.85
2022-11-28T18:47:33.967Z,63.48
2022-11-28T18:50:38.150Z,64.41
2022-11-28T18:53:42.152Z,63.80
2022-11-28T18:56:46.205Z,62.95
2022-11-28T18:59:54.929Z,62.38
2022-11-28T19:02:59.360Z,62.81
2022-11-28T19:06:03.612Z,62.35
2022-11-28T19:09:07.724Z,62.30
2022-11-28T19:12:11.772Z,61.96
2022-11-28T19:15:15.858Z,62.69
2022-11-28T19:18:19.878Z,62.78
2022-11-28T19:21:24.287Z,63.64
2022-11-28T19:24:28.782Z,62.97
2022-11-28T19:27:32.602Z,64.55
2022-11-28T19:30:36.571Z,67.01
2022-11-28T19:33:40.673Z,65.53
2022-11-28T19:36:44.852Z,64.42
2022-11-28T19:39:49.050Z,64.55
2022-11-28T19:42:53.156Z,64.52
2022-11-28T19:45:57.219Z,65.21
2022-11-28T19:49:01.424Z,65.56
2022-11-28T19:52:05.654Z,65.58
2022-11-28T19:55:09.423Z,65.75
2022-11-28T19:58:13.669Z,64.38
2022-11-28T20:01:18.048Z,65.13
2022-11-28T20:04:22.432Z,65.60
2022-11-28T20:07:26.487Z,65.67
2022-11-28T20:10:30.382Z,66.34
2022-11-28T20:13:34.480Z,66.74
2022-11-28T20:16:39.836Z,65.21
2022-11-28T20:19:44.401Z,65.74
2022-11-28T20:22:48.296Z,65.78
2022-11-28T20:25:52.080Z,66.76
2022-11-28T20:28:56.163Z,66.12
2022-11-28T20:32:00.250Z,66.84
2022-11-28T20:35:04.712Z,66.49
2022-11-28T20:38:08.881Z,66.32
2022-11-28T20:41:12.695Z,66.68
2022-11-28T20:44:16.699Z,66.94
2022-11-28T20:47:20.839Z,67.03
2022-11-28T20:50:24.895Z,66.54
2022-11-28T20:53:29.155Z,66.21
2022-11-28T20:56:38.424Z,67.11
2022-11-28T20:59:50.723Z,67.31
2022-11-28T21:02:54.986Z,66.93
2022-11-28T21:06:01.240Z,66.82
2022-11-28T21:09:06.773Z,66.45
2022-11-28T21:12:10.867Z,66.93
2022-11-28T21:15:14.825Z,66.34
2022-11-28T21:18:18.711Z,66.91
2022-11-28T21:21:22.866Z,67.31
2022-11-28T21:24:27.335Z,69.16
2022-11-28T21:27:31.261Z,67.88
2022-11-28T21:30:35.473Z,68.39
2022-11-28T21:33:39.883Z,66.90
2022-11-28T21:36:43.707Z,68.13
2022-11-28T21:39:47.819Z,66.85
2022-11-28T21:42:51.951Z,66.12
2022-11-28T21:45:56.250Z,67.64
2022-11-28T21:49:00.394Z,68.22
2022-11-28T21:52:04.317Z,67.42
2022-11-28T21:55:14.422Z,67.50
2022-11-28T21:58:21.195Z,67.57
2022-11-28T22:01:29.021Z,66.96
2022-11-28T22:04:33.418Z,67.91
2022-11-28T22:07:37.555Z,66.83
2022-11-28T22:10:41.258Z,66.62
2022-11-28T22:13:45.382Z,66.97
2022-11-28T22:16:49.530Z,66.05
2022-11-28T22:19:55.999Z,64.95
2022-11-28T22:23:00.022Z,65.48
2022-11-28T22:26:04.321Z,65.67
2022-11-28T22:29:08.345Z,67.01
2022-11-28T22:32:12.529Z,66.91
2022-11-28T22:35:16.466Z,66.92
2022-11-28T22:38:20.240Z,68.80
2022-11-28T22:41:28.355Z,66.88
2022-11-28T22:44:32.836Z,66.78
2022-11-28T22:47:37.027Z,67.76
2022-11-28T22:50:41.222Z,66.35
2022-11-28T22:53:45.244Z,67.13
2022-11-28T22:56:50.444Z,66.50
2022-11-28T22:59:55.897Z,67.93
2022-11-28T23:03:00.577Z,67.54
2022-11-28T23:06:04.392Z,67.50
2022-11-28T23:09:08.103Z,67.80
2022-11-28T23:12:11.962Z,67.95
2022-11-28T23:15:15.886Z,68.40
2022-11-28T23:18:20.143Z,67.89
2022-11-28T23:21:23.966Z,68.30
2022-11-28T23:24:29.116Z,67.60
2022-11-28T23:27:33.096Z,67.53
2022-11-28T23:30:37.309Z,70.21
2022-11-28T23:33:41.459Z,69.83
2022-11-28T23:36:45.678Z,72.35
2022-11-28T23:39:49.623Z,72.51
2022-11-28T23:42:53.692Z,71.15
2022-11-28T23:45:57.972Z,69.85
2022-11-28T23:49:02.020Z,68.69
2022-11-28T23:52:06.201Z,66.91
2022-11-28T23:55:10.182Z,67.80
2022-11-28T23:58:14.406Z,67.00
